Outlook, Canada
Current Conditions -  °F | °C
As of 5:10 PM on Friday 19 Dec 2014 (Local Time) from CYXE Reporting Station
Haze Haze  
Wind Chill:   Ceiling: 300
Heat Index: 16°   Visibility: 1.5mi
Dew Point: 14°   Wind: 8mph
Humidity: 93%   Direction: 130°SE
Pressure: 29.92"   Gusts: NA
Location:  51.5°N, 107.05°W
Report Text: CYXE 192310Z 13007KT 1 1/2SM BR OVC003 M09/M10 A2992 RMK FG4ST4 VIS VRB 1-2 SLP169
Loading
Personal Weather Stations






























Interactive Weather Map New forecast layout! Learn more

10-Day Weather Forecast

Advertisements
Track Severe Weather on mobile